sensor_id;sensor_type;location;lat;lon;timestamp;P1;durP1;ratioP1;P2;durP2;ratioP2
71127;SDS011;59249;59.736;30.568;2023-05-10T00:00:45;12.63;;;5.97;;
71127;SDS011;59249;59.736;30.568;2023-05-10T00:03:14;12.77;;;4.85;;
71127;SDS011;59249;59.736;30.568;2023-05-10T00:05:43;14.80;;;6.28;;
71127;SDS011;59249;59.736;30.568;2023-05-10T00:08:12;11.88;;;6.05;;
71127;SDS011;59249;59.736;30.568;2023-05-10T00:10:40;15.23;;;5.95;;
71127;SDS011;59249;59.736;30.568;2023-05-10T00:13:09;14.43;;;5.63;;
71127;SDS011;59249;59.736;30.568;2023-05-10T00:15:39;13.35;;;6.07;;
71127;SDS011;59249;59.736;30.568;2023-05-10T00:18:08;14.10;;;6.32;;
71127;SDS011;59249;59.736;30.568;2023-05-10T00:20:37;11.82;;;5.88;;
71127;SDS011;59249;59.736;30.568;2023-05-10T00:23:06;13.57;;;6.05;;
71127;SDS011;59249;59.736;30.568;2023-05-10T00:25:35;20.43;;;6.50;;
71127;SDS011;59249;59.736;30.568;2023-05-10T00:28:04;14.30;;;6.15;;
71127;SDS011;59249;59.736;30.568;2023-05-10T00:30:32;15.18;;;6.22;;
71127;SDS011;59249;59.736;30.568;2023-05-10T00:33:02;16.40;;;6.25;;
71127;SDS011;59249;59.736;30.568;2023-05-10T00:35:31;18.92;;;6.70;;
71127;SDS011;59249;59.736;30.568;2023-05-10T00:38:00;13.87;;;5.73;;
71127;SDS011;59249;59.736;30.568;2023-05-10T00:40:29;18.10;;;7.07;;
71127;SDS011;59249;59.736;30.568;2023-05-10T00:43:03;15.00;;;6.15;;
71127;SDS011;59249;59.736;30.568;2023-05-10T00:45:32;12.48;;;5.88;;
71127;SDS011;59249;59.736;30.568;2023-05-10T00:48:05;15.18;;;5.38;;
71127;SDS011;59249;59.736;30.568;2023-05-10T00:50:36;14.50;;;7.07;;
71127;SDS011;59249;59.736;30.568;2023-05-10T00:53:06;15.40;;;6.28;;
71127;SDS011;59249;59.736;30.568;2023-05-10T00:55:37;15.02;;;5.80;;
71127;SDS011;59249;59.736;30.568;2023-05-10T00:58:06;11.85;;;5.45;;
71127;SDS011;59249;59.736;30.568;2023-05-10T01:00:35;16.15;;;5.80;;
71127;SDS011;59249;59.736;30.568;2023-05-10T01:03:07;14.97;;;5.63;;
71127;SDS011;59249;59.736;30.568;2023-05-10T01:05:35;18.25;;;6.40;;
71127;SDS011;59249;59.736;30.568;2023-05-10T01:08:04;13.77;;;5.65;;
71127;SDS011;59249;59.736;30.568;2023-05-10T01:10:35;12.98;;;6.05;;
71127;SDS011;59249;59.736;30.568;2023-05-10T01:13:04;14.73;;;6.45;;
71127;SDS011;59249;59.736;30.568;2023-05-10T01:15:33;15.30;;;6.37;;
71127;SDS011;59249;59.736;30.568;2023-05-10T01:18:03;15.00;;;6.53;;
71127;SDS011;59249;59.736;30.568;2023-05-10T01:20:35;14.07;;;6.85;;
71127;SDS011;59249;59.736;30.568;2023-05-10T01:23:16;19.30;;;6.93;;
71127;SDS011;59249;59.736;30.568;2023-05-10T01:26:14;14.85;;;5.70;;
71127;SDS011;59249;59.736;30.568;2023-05-10T01:29:24;13.83;;;6.80;;
71127;SDS011;59249;59.736;30.568;2023-05-10T01:32:36;14.15;;;6.82;;
71127;SDS011;59249;59.736;30.568;2023-05-10T01:35:15;15.77;;;6.50;;
71127;SDS011;59249;59.736;30.568;2023-05-10T01:37:55;18.30;;;6.97;;
71127;SDS011;59249;59.736;30.568;2023-05-10T01:40:35;17.17;;;6.75;;
71127;SDS011;59249;59.736;30.568;2023-05-10T01:43:10;12.90;;;6.00;;
71127;SDS011;59249;59.736;30.568;2023-05-10T01:45:54;14.68;;;6.55;;
71127;SDS011;59249;59.736;30.568;2023-05-10T01:48:38;13.65;;;5.82;;
71127;SDS011;59249;59.736;30.568;2023-05-10T01:51:17;12.30;;;6.05;;
71127;SDS011;59249;59.736;30.568;2023-05-10T01:53:51;12.52;;;5.82;;
71127;SDS011;59249;59.736;30.568;2023-05-10T01:56:29;14.90;;;5.83;;
71127;SDS011;59249;59.736;30.568;2023-05-10T01:59:04;13.55;;;6.50;;
71127;SDS011;59249;59.736;30.568;2023-05-10T02:01:39;14.73;;;6.00;;
71127;SDS011;59249;59.736;30.568;2023-05-10T02:04:12;21.83;;;7.07;;
71127;SDS011;59249;59.736;30.568;2023-05-10T02:06:45;14.35;;;5.93;;
71127;SDS011;59249;59.736;30.568;2023-05-10T02:09:16;12.70;;;5.47;;
71127;SDS011;59249;59.736;30.568;2023-05-10T02:11:49;14.27;;;6.10;;
71127;SDS011;59249;59.736;30.568;2023-05-10T02:14:18;16.02;;;6.25;;
71127;SDS011;59249;59.736;30.568;2023-05-10T02:16:51;13.40;;;5.53;;
71127;SDS011;59249;59.736;30.568;2023-05-10T02:19:25;11.13;;;5.63;;
71127;SDS011;59249;59.736;30.568;2023-05-10T02:22:16;11.30;;;5.57;;
71127;SDS011;59249;59.736;30.568;2023-05-10T02:24:47;15.57;;;5.53;;
71127;SDS011;59249;59.736;30.568;2023-05-10T02:27:17;15.40;;;5.60;;
71127;SDS011;59249;59.736;30.568;2023-05-10T02:29:48;13.35;;;5.82;;
71127;SDS011;59249;59.736;30.568;2023-05-10T02:32:19;11.02;;;5.00;;
71127;SDS011;59249;59.736;30.568;2023-05-10T02:34:51;12.50;;;5.50;;
71127;SDS011;59249;59.736;30.568;2023-05-10T02:37:22;12.80;;;5.65;;
71127;SDS011;59249;59.736;30.568;2023-05-10T02:39:55;13.90;;;5.30;;
71127;SDS011;59249;59.736;30.568;2023-05-10T02:42:25;13.77;;;5.82;;
71127;SDS011;59249;59.736;30.568;2023-05-10T02:45:01;12.35;;;4.88;;
71127;SDS011;59249;59.736;30.568;2023-05-10T02:47:35;16.43;;;5.97;;
71127;SDS011;59249;59.736;30.568;2023-05-10T02:50:06;14.38;;;4.75;;
71127;SDS011;59249;59.736;30.568;2023-05-10T02:52:39;13.15;;;5.25;;
71127;SDS011;59249;59.736;30.568;2023-05-10T02:55:12;9.57;;;4.95;;
71127;SDS011;59249;59.736;30.568;2023-05-10T02:57:46;11.70;;;5.43;;
71127;SDS011;59249;59.736;30.568;2023-05-10T03:00:22;15.23;;;6.03;;
71127;SDS011;59249;59.736;30.568;2023-05-10T03:02:53;12.10;;;6.35;;
71127;SDS011;59249;59.736;30.568;2023-05-10T03:05:24;13.73;;;7.05;;
71127;SDS011;59249;59.736;30.568;2023-05-10T03:07:53;19.98;;;7.97;;
71127;SDS011;59249;59.736;30.568;2023-05-10T03:10:23;16.95;;;8.45;;
71127;SDS011;59249;59.736;30.568;2023-05-10T03:13:02;20.37;;;7.07;;
71127;SDS011;59249;59.736;30.568;2023-05-10T03:15:42;16.60;;;7.35;;
71127;SDS011;59249;59.736;30.568;2023-05-10T03:18:21;17.23;;;6.43;;
71127;SDS011;59249;59.736;30.568;2023-05-10T03:20:56;14.25;;;7.55;;
71127;SDS011;59249;59.736;30.568;2023-05-10T03:23:34;20.52;;;7.85;;
71127;SDS011;59249;59.736;30.568;2023-05-10T03:26:12;13.93;;;7.33;;
71127;SDS011;59249;59.736;30.568;2023-05-10T03:28:49;14.55;;;7.25;;
71127;SDS011;59249;59.736;30.568;2023-05-10T03:31:19;16.02;;;7.03;;
71127;SDS011;59249;59.736;30.568;2023-05-10T03:33:49;15.38;;;7.57;;
71127;SDS011;59249;59.736;30.568;2023-05-10T03:36:25;18.02;;;7.60;;
71127;SDS011;59249;59.736;30.568;2023-05-10T03:38:54;14.93;;;7.53;;
71127;SDS011;59249;59.736;30.568;2023-05-10T03:41:24;18.85;;;8.40;;
71127;SDS011;59249;59.736;30.568;2023-05-10T03:43:53;15.00;;;7.72;;
71127;SDS011;59249;59.736;30.568;2023-05-10T03:46:22;16.67;;;7.18;;
71127;SDS011;59249;59.736;30.568;2023-05-10T03:48:51;16.50;;;8.02;;
71127;SDS011;59249;59.736;30.568;2023-05-10T03:51:19;18.17;;;7.23;;
71127;SDS011;59249;59.736;30.568;2023-05-10T03:53:50;20.40;;;8.80;;
71127;SDS011;59249;59.736;30.568;2023-05-10T03:56:19;15.80;;;6.55;;
71127;SDS011;59249;59.736;30.568;2023-05-10T03:58:50;14.20;;;7.07;;
71127;SDS011;59249;59.736;30.568;2023-05-10T04:01:19;16.05;;;6.88;;
71127;SDS011;59249;59.736;30.568;2023-05-10T04:03:48;16.10;;;8.03;;
71127;SDS011;59249;59.736;30.568;2023-05-10T04:06:17;18.98;;;7.57;;
71127;SDS011;59249;59.736;30.568;2023-05-10T04:08:46;14.20;;;6.75;;
71127;SDS011;59249;59.736;30.568;2023-05-10T04:11:16;17.90;;;7.25;;
71127;SDS011;59249;59.736;30.568;2023-05-10T04:13:44;17.20;;;6.85;;
71127;SDS011;59249;59.736;30.568;2023-05-10T04:16:13;19.70;;;7.77;;
71127;SDS011;59249;59.736;30.568;2023-05-10T04:18:42;19.17;;;8.40;;
71127;SDS011;59249;59.736;30.568;2023-05-10T04:21:11;17.60;;;8.25;;
71127;SDS011;59249;59.736;30.568;2023-05-10T04:23:40;19.42;;;8.40;;
71127;SDS011;59249;59.736;30.568;2023-05-10T04:26:09;19.35;;;7.75;;
71127;SDS011;59249;59.736;30.568;2023-05-10T04:28:39;17.23;;;7.73;;
71127;SDS011;59249;59.736;30.568;2023-05-10T04:31:08;14.73;;;7.88;;
71127;SDS011;59249;59.736;30.568;2023-05-10T04:33:38;16.77;;;7.85;;
71127;SDS011;59249;59.736;30.568;2023-05-10T04:36:07;17.23;;;8.48;;
71127;SDS011;59249;59.736;30.568;2023-05-10T04:38:40;19.80;;;8.32;;
71127;SDS011;59249;59.736;30.568;2023-05-10T04:41:09;19.33;;;8.33;;
71127;SDS011;59249;59.736;30.568;2023-05-10T04:43:40;15.30;;;7.20;;
71127;SDS011;59249;59.736;30.568;2023-05-10T04:46:09;15.32;;;6.82;;
71127;SDS011;59249;59.736;30.568;2023-05-10T04:48:38;16.23;;;6.60;;
71127;SDS011;59249;59.736;30.568;2023-05-10T04:51:06;13.20;;;6.65;;
71127;SDS011;59249;59.736;30.568;2023-05-10T04:53:35;15.37;;;6.17;;
71127;SDS011;59249;59.736;30.568;2023-05-10T04:56:04;16.75;;;6.50;;
71127;SDS011;59249;59.736;30.568;2023-05-10T04:58:34;17.92;;;7.15;;
71127;SDS011;59249;59.736;30.568;2023-05-10T05:01:08;22.05;;;6.05;;
71127;SDS011;59249;59.736;30.568;2023-05-10T05:03:37;14.13;;;6.38;;
71127;SDS011;59249;59.736;30.568;2023-05-10T05:06:06;14.03;;;6.33;;
71127;SDS011;59249;59.736;30.568;2023-05-10T05:08:35;14.32;;;6.35;;
71127;SDS011;59249;59.736;30.568;2023-05-10T05:11:04;12.07;;;6.53;;
71127;SDS011;59249;59.736;30.568;2023-05-10T05:13:33;12.18;;;5.97;;
71127;SDS011;59249;59.736;30.568;2023-05-10T05:16:02;11.45;;;6.00;;
71127;SDS011;59249;59.736;30.568;2023-05-10T05:18:32;13.87;;;6.53;;
71127;SDS011;59249;59.736;30.568;2023-05-10T05:21:01;19.02;;;6.10;;
71127;SDS011;59249;59.736;30.568;2023-05-10T05:23:30;12.63;;;5.60;;
71127;SDS011;59249;59.736;30.568;2023-05-10T05:25:59;13.65;;;6.80;;
71127;SDS011;59249;59.736;30.568;2023-05-10T05:28:28;12.60;;;5.93;;
71127;SDS011;59249;59.736;30.568;2023-05-10T05:30:59;19.13;;;6.87;;
71127;SDS011;59249;59.736;30.568;2023-05-10T05:33:28;17.08;;;5.75;;
71127;SDS011;59249;59.736;30.568;2023-05-10T05:35:59;14.55;;;5.82;;
71127;SDS011;59249;59.736;30.568;2023-05-10T05:38:29;11.15;;;4.88;;
71127;SDS011;59249;59.736;30.568;2023-05-10T05:40:58;11.20;;;5.60;;
71127;SDS011;59249;59.736;30.568;2023-05-10T05:43:28;13.40;;;5.90;;
71127;SDS011;59249;59.736;30.568;2023-05-10T05:45:56;13.20;;;5.30;;
71127;SDS011;59249;59.736;30.568;2023-05-10T05:48:25;9.68;;;5.20;;
71127;SDS011;59249;59.736;30.568;2023-05-10T05:50:54;10.65;;;4.28;;
71127;SDS011;59249;59.736;30.568;2023-05-10T05:53:25;9.52;;;3.97;;
71127;SDS011;59249;59.736;30.568;2023-05-10T05:55:54;13.47;;;4.90;;
71127;SDS011;59249;59.736;30.568;2023-05-10T05:58:24;9.88;;;4.68;;
71127;SDS011;59249;59.736;30.568;2023-05-10T06:00:54;11.88;;;3.38;;
71127;SDS011;59249;59.736;30.568;2023-05-10T06:03:23;11.30;;;4.15;;
71127;SDS011;59249;59.736;30.568;2023-05-10T06:05:52;11.00;;;3.83;;
71127;SDS011;59249;59.736;30.568;2023-05-10T06:08:21;7.87;;;3.33;;
71127;SDS011;59249;59.736;30.568;2023-05-10T06:10:51;9.82;;;3.53;;
71127;SDS011;59249;59.736;30.568;2023-05-10T06:13:20;7.93;;;2.92;;
71127;SDS011;59249;59.736;30.568;2023-05-10T06:15:49;6.20;;;2.50;;
71127;SDS011;59249;59.736;30.568;2023-05-10T06:18:18;6.13;;;2.80;;
71127;SDS011;59249;59.736;30.568;2023-05-10T06:20:46;8.70;;;2.20;;
71127;SDS011;59249;59.736;30.568;2023-05-10T06:23:15;4.97;;;1.65;;
71127;SDS011;59249;59.736;30.568;2023-05-10T06:25:44;9.35;;;2.30;;
71127;SDS011;59249;59.736;30.568;2023-05-10T06:28:14;5.28;;;2.05;;
71127;SDS011;59249;59.736;30.568;2023-05-10T06:30:43;7.55;;;2.40;;
71127;SDS011;59249;59.736;30.568;2023-05-10T06:33:12;5.77;;;2.93;;
71127;SDS011;59249;59.736;30.568;2023-05-10T06:35:42;6.38;;;2.72;;
71127;SDS011;59249;59.736;30.568;2023-05-10T06:38:11;8.77;;;3.15;;
71127;SDS011;59249;59.736;30.568;2023-05-10T06:40:41;8.80;;;3.75;;
71127;SDS011;59249;59.736;30.568;2023-05-10T06:43:09;7.85;;;3.55;;
71127;SDS011;59249;59.736;30.568;2023-05-10T06:45:40;8.97;;;4.00;;
71127;SDS011;59249;59.736;30.568;2023-05-10T06:48:09;14.15;;;4.78;;
71127;SDS011;59249;59.736;30.568;2023-05-10T06:50:38;9.85;;;4.43;;
71127;SDS011;59249;59.736;30.568;2023-05-10T06:53:08;12.95;;;4.30;;
71127;SDS011;59249;59.736;30.568;2023-05-10T06:55:37;10.13;;;4.45;;
71127;SDS011;59249;59.736;30.568;2023-05-10T06:58:05;11.90;;;5.03;;
71127;SDS011;59249;59.736;30.568;2023-05-10T07:00:34;10.13;;;3.88;;
71127;SDS011;59249;59.736;30.568;2023-05-10T07:03:07;10.02;;;3.60;;
71127;SDS011;59249;59.736;30.568;2023-05-10T07:05:36;11.32;;;4.53;;
71127;SDS011;59249;59.736;30.568;2023-05-10T07:08:05;10.40;;;3.78;;
71127;SDS011;59249;59.736;30.568;2023-05-10T07:10:35;10.43;;;3.70;;
71127;SDS011;59249;59.736;30.568;2023-05-10T07:13:04;8.90;;;3.72;;
71127;SDS011;59249;59.736;30.568;2023-05-10T07:15:34;9.35;;;3.67;;
71127;SDS011;59249;59.736;30.568;2023-05-10T07:18:02;8.60;;;3.08;;
71127;SDS011;59249;59.736;30.568;2023-05-10T07:20:34;10.35;;;2.58;;
71127;SDS011;59249;59.736;30.568;2023-05-10T07:23:03;7.57;;;3.40;;
71127;SDS011;59249;59.736;30.568;2023-05-10T07:25:32;10.18;;;2.70;;
71127;SDS011;59249;59.736;30.568;2023-05-10T07:28:00;5.70;;;2.33;;
71127;SDS011;59249;59.736;30.568;2023-05-10T07:30:29;9.55;;;2.55;;
71127;SDS011;59249;59.736;30.568;2023-05-10T07:32:58;7.70;;;2.80;;
71127;SDS011;59249;59.736;30.568;2023-05-10T07:35:27;9.97;;;2.80;;
71127;SDS011;59249;59.736;30.568;2023-05-10T07:37:57;11.85;;;3.00;;
71127;SDS011;59249;59.736;30.568;2023-05-10T07:40:27;5.65;;;2.47;;
71127;SDS011;59249;59.736;30.568;2023-05-10T07:42:56;10.52;;;2.42;;
71127;SDS011;59249;59.736;30.568;2023-05-10T07:45:27;5.93;;;2.55;;
71127;SDS011;59249;59.736;30.568;2023-05-10T07:47:55;7.60;;;2.50;;
71127;SDS011;59249;59.736;30.568;2023-05-10T07:50:25;6.93;;;2.58;;
71127;SDS011;59249;59.736;30.568;2023-05-10T07:52:54;9.43;;;2.45;;
71127;SDS011;59249;59.736;30.568;2023-05-10T07:55:24;6.18;;;2.10;;
71127;SDS011;59249;59.736;30.568;2023-05-10T07:57:53;7.20;;;2.30;;
71127;SDS011;59249;59.736;30.568;2023-05-10T08:00:21;5.17;;;1.83;;
71127;SDS011;59249;59.736;30.568;2023-05-10T08:02:50;8.82;;;2.05;;
71127;SDS011;59249;59.736;30.568;2023-05-10T08:05:19;8.88;;;2.28;;
71127;SDS011;59249;59.736;30.568;2023-05-10T08:07:48;7.15;;;2.88;;
71127;SDS011;59249;59.736;30.568;2023-05-10T08:10:17;11.48;;;2.58;;
71127;SDS011;59249;59.736;30.568;2023-05-10T08:12:47;5.47;;;1.73;;
71127;SDS011;59249;59.736;30.568;2023-05-10T08:15:19;6.93;;;2.17;;
71127;SDS011;59249;59.736;30.568;2023-05-10T08:17:48;6.82;;;2.70;;
71127;SDS011;59249;59.736;30.568;2023-05-10T08:20:17;6.43;;;1.95;;
71127;SDS011;59249;59.736;30.568;2023-05-10T08:22:47;7.30;;;1.75;;
71127;SDS011;59249;59.736;30.568;2023-05-10T08:25:17;7.70;;;2.20;;
71127;SDS011;59249;59.736;30.568;2023-05-10T08:27:47;10.00;;;1.45;;
71127;SDS011;59249;59.736;30.568;2023-05-10T08:30:16;9.05;;;2.40;;
71127;SDS011;59249;59.736;30.568;2023-05-10T08:32:45;7.10;;;1.58;;
71127;SDS011;59249;59.736;30.568;2023-05-10T08:35:15;6.10;;;2.10;;
71127;SDS011;59249;59.736;30.568;2023-05-10T08:37:44;5.80;;;1.83;;
71127;SDS011;59249;59.736;30.568;2023-05-10T08:40:18;5.97;;;1.63;;
71127;SDS011;59249;59.736;30.568;2023-05-10T08:42:51;6.50;;;1.85;;
71127;SDS011;59249;59.736;30.568;2023-05-10T08:45:30;6.88;;;2.00;;
71127;SDS011;59249;59.736;30.568;2023-05-10T08:48:05;9.70;;;1.88;;
71127;SDS011;59249;59.736;30.568;2023-05-10T08:50:35;5.27;;;1.60;;
71127;SDS011;59249;59.736;30.568;2023-05-10T08:53:09;5.80;;;1.63;;
71127;SDS011;59249;59.736;30.568;2023-05-10T08:55:40;7.53;;;1.98;;
71127;SDS011;59249;59.736;30.568;2023-05-10T08:58:11;6.82;;;1.90;;
71127;SDS011;59249;59.736;30.568;2023-05-10T09:00:39;6.47;;;1.80;;
71127;SDS011;59249;59.736;30.568;2023-05-10T09:03:08;7.53;;;1.50;;
71127;SDS011;59249;59.736;30.568;2023-05-10T09:05:38;4.40;;;1.88;;
71127;SDS011;59249;59.736;30.568;2023-05-10T09:08:08;8.77;;;1.52;;
71127;SDS011;59249;59.736;30.568;2023-05-10T09:10:37;3.95;;;1.58;;
71127;SDS011;59249;59.736;30.568;2023-05-10T09:13:09;4.65;;;1.65;;
71127;SDS011;59249;59.736;30.568;2023-05-10T09:15:41;5.77;;;1.70;;
71127;SDS011;59249;59.736;30.568;2023-05-10T09:18:14;7.00;;;1.73;;
71127;SDS011;59249;59.736;30.568;2023-05-10T09:20:43;6.38;;;1.73;;
71127;SDS011;59249;59.736;30.568;2023-05-10T09:23:13;9.63;;;1.73;;
71127;SDS011;59249;59.736;30.568;2023-05-10T09:25:43;4.88;;;1.40;;
71127;SDS011;59249;59.736;30.568;2023-05-10T09:28:14;3.97;;;1.30;;
71127;SDS011;59249;59.736;30.568;2023-05-10T09:30:43;5.43;;;1.38;;
71127;SDS011;59249;59.736;30.568;2023-05-10T09:33:23;6.32;;;1.70;;
71127;SDS011;59249;59.736;30.568;2023-05-10T09:35:53;6.43;;;1.77;;
71127;SDS011;59249;59.736;30.568;2023-05-10T09:38:22;5.07;;;1.67;;
71127;SDS011;59249;59.736;30.568;2023-05-10T09:40:51;3.97;;;1.60;;
71127;SDS011;59249;59.736;30.568;2023-05-10T09:43:23;6.20;;;1.88;;
71127;SDS011;59249;59.736;30.568;2023-05-10T09:45:52;7.53;;;1.92;;
71127;SDS011;59249;59.736;30.568;2023-05-10T09:48:21;5.50;;;1.80;;
71127;SDS011;59249;59.736;30.568;2023-05-10T09:50:56;4.18;;;1.60;;
71127;SDS011;59249;59.736;30.568;2023-05-10T09:53:26;7.93;;;1.73;;
71127;SDS011;59249;59.736;30.568;2023-05-10T09:55:55;5.75;;;1.55;;
71127;SDS011;59249;59.736;30.568;2023-05-10T09:58:25;6.70;;;1.55;;
71127;SDS011;59249;59.736;30.568;2023-05-10T10:00:53;5.80;;;1.67;;
71127;SDS011;59249;59.736;30.568;2023-05-10T10:03:23;4.63;;;1.45;;
71127;SDS011;59249;59.736;30.568;2023-05-10T10:05:55;6.80;;;1.93;;
71127;SDS011;59249;59.736;30.568;2023-05-10T10:08:25;4.25;;;1.77;;
71127;SDS011;59249;59.736;30.568;2023-05-10T10:10:54;7.32;;;1.80;;
71127;SDS011;59249;59.736;30.568;2023-05-10T10:13:24;5.30;;;1.83;;
71127;SDS011;59249;59.736;30.568;2023-05-10T10:15:53;5.72;;;1.77;;
71127;SDS011;59249;59.736;30.568;2023-05-10T10:18:23;5.57;;;1.70;;
71127;SDS011;59249;59.736;30.568;2023-05-10T10:20:54;4.93;;;1.42;;
71127;SDS011;59249;59.736;30.568;2023-05-10T10:23:24;6.03;;;1.50;;
71127;SDS011;59249;59.736;30.568;2023-05-10T10:25:55;4.53;;;1.15;;
71127;SDS011;59249;59.736;30.568;2023-05-10T10:28:26;4.65;;;1.40;;
71127;SDS011;59249;59.736;30.568;2023-05-10T10:31:13;4.40;;;1.40;;
71127;SDS011;59249;59.736;30.568;2023-05-10T10:33:55;3.38;;;1.02;;
71127;SDS011;59249;59.736;30.568;2023-05-10T10:36:29;3.47;;;1.35;;
71127;SDS011;59249;59.736;30.568;2023-05-10T10:39:00;2.78;;;0.90;;
71127;SDS011;59249;59.736;30.568;2023-05-10T10:41:31;4.45;;;1.20;;
71127;SDS011;59249;59.736;30.568;2023-05-10T10:47:06;3.55;;;1.05;;
71127;SDS011;59249;59.736;30.568;2023-05-10T10:49:52;4.18;;;1.50;;
71127;SDS011;59249;59.736;30.568;2023-05-10T10:52:32;7.40;;;1.00;;
71127;SDS011;59249;59.736;30.568;2023-05-10T10:55:03;3.85;;;1.23;;
71127;SDS011;59249;59.736;30.568;2023-05-10T10:57:46;5.07;;;1.13;;
71127;SDS011;59249;59.736;30.568;2023-05-10T11:00:30;7.95;;;1.40;;
71127;SDS011;59249;59.736;30.568;2023-05-10T11:03:03;5.30;;;1.30;;
71127;SDS011;59249;59.736;30.568;2023-05-10T11:05:35;4.00;;;1.30;;
71127;SDS011;59249;59.736;30.568;2023-05-10T11:08:11;4.82;;;1.45;;
71127;SDS011;59249;59.736;30.568;2023-05-10T11:10:51;7.97;;;1.43;;
71127;SDS011;59249;59.736;30.568;2023-05-10T11:13:38;4.55;;;1.65;;
71127;SDS011;59249;59.736;30.568;2023-05-10T11:16:16;6.63;;;1.08;;
71127;SDS011;59249;59.736;30.568;2023-05-10T11:18:54;4.97;;;1.27;;
71127;SDS011;59249;59.736;30.568;2023-05-10T11:21:29;4.70;;;1.00;;
71127;SDS011;59249;59.736;30.568;2023-05-10T11:23:58;6.83;;;1.10;;
71127;SDS011;59249;59.736;30.568;2023-05-10T11:26:34;5.63;;;1.42;;
71127;SDS011;59249;59.736;30.568;2023-05-10T11:29:04;5.85;;;1.38;;
71127;SDS011;59249;59.736;30.568;2023-05-10T11:31:34;4.95;;;1.25;;
71127;SDS011;59249;59.736;30.568;2023-05-10T11:34:10;3.63;;;1.27;;
71127;SDS011;59249;59.736;30.568;2023-05-10T11:36:41;6.10;;;1.30;;
71127;SDS011;59249;59.736;30.568;2023-05-10T11:39:09;6.50;;;2.40;;
71127;SDS011;59249;59.736;30.568;2023-05-10T11:41:39;5.53;;;1.00;;
71127;SDS011;59249;59.736;30.568;2023-05-10T11:44:08;7.50;;;1.67;;
71127;SDS011;59249;59.736;30.568;2023-05-10T11:46:39;7.57;;;1.88;;
71127;SDS011;59249;59.736;30.568;2023-05-10T11:49:08;5.03;;;1.40;;
71127;SDS011;59249;59.736;30.568;2023-05-10T11:51:37;5.72;;;1.40;;
71127;SDS011;59249;59.736;30.568;2023-05-10T11:54:09;3.70;;;1.27;;
71127;SDS011;59249;59.736;30.568;2023-05-10T11:56:39;4.80;;;1.63;;
71127;SDS011;59249;59.736;30.568;2023-05-10T11:59:09;4.40;;;1.40;;
71127;SDS011;59249;59.736;30.568;2023-05-10T12:01:39;3.83;;;1.43;;
71127;SDS011;59249;59.736;30.568;2023-05-10T12:04:08;4.70;;;1.42;;
71127;SDS011;59249;59.736;30.568;2023-05-10T12:06:39;4.32;;;1.30;;
71127;SDS011;59249;59.736;30.568;2023-05-10T12:09:09;3.90;;;1.30;;
71127;SDS011;59249;59.736;30.568;2023-05-10T12:11:38;4.60;;;1.40;;
71127;SDS011;59249;59.736;30.568;2023-05-10T12:14:10;3.67;;;1.30;;
71127;SDS011;59249;59.736;30.568;2023-05-10T12:16:40;5.30;;;1.30;;
71127;SDS011;59249;59.736;30.568;2023-05-10T12:19:11;7.55;;;2.70;;
71127;SDS011;59249;59.736;30.568;2023-05-10T12:21:46;5.13;;;1.00;;
71127;SDS011;59249;59.736;30.568;2023-05-10T12:24:15;3.97;;;1.08;;
71127;SDS011;59249;59.736;30.568;2023-05-10T12:26:45;4.47;;;1.40;;
71127;SDS011;59249;59.736;30.568;2023-05-10T12:29:15;5.60;;;1.20;;
71127;SDS011;59249;59.736;30.568;2023-05-10T12:31:51;5.03;;;1.20;;
71127;SDS011;59249;59.736;30.568;2023-05-10T12:34:30;4.88;;;1.30;;
71127;SDS011;59249;59.736;30.568;2023-05-10T12:37:02;5.00;;;1.30;;
71127;SDS011;59249;59.736;30.568;2023-05-10T12:39:38;6.87;;;1.53;;
71127;SDS011;59249;59.736;30.568;2023-05-10T12:42:08;3.47;;;0.90;;
71127;SDS011;59249;59.736;30.568;2023-05-10T12:44:38;3.75;;;0.70;;
71127;SDS011;59249;59.736;30.568;2023-05-10T12:47:09;3.47;;;1.00;;
71127;SDS011;59249;59.736;30.568;2023-05-10T12:49:38;5.55;;;0.85;;
71127;SDS011;59249;59.736;30.568;2023-05-10T12:52:07;4.90;;;1.17;;
71127;SDS011;59249;59.736;30.568;2023-05-10T12:54:36;4.65;;;1.00;;
71127;SDS011;59249;59.736;30.568;2023-05-10T12:57:04;5.22;;;1.10;;
71127;SDS011;59249;59.736;30.568;2023-05-10T12:59:33;3.60;;;0.73;;
71127;SDS011;59249;59.736;30.568;2023-05-10T13:02:04;3.78;;;1.40;;
71127;SDS011;59249;59.736;30.568;2023-05-10T13:04:35;3.77;;;1.27;;
71127;SDS011;59249;59.736;30.568;2023-05-10T13:07:06;3.95;;;1.25;;
71127;SDS011;59249;59.736;30.568;2023-05-10T13:09:35;3.47;;;1.00;;
71127;SDS011;59249;59.736;30.568;2023-05-10T13:12:04;3.17;;;0.82;;
71127;SDS011;59249;59.736;30.568;2023-05-10T13:14:35;5.85;;;1.17;;
71127;SDS011;59249;59.736;30.568;2023-05-10T13:17:04;4.93;;;0.90;;
71127;SDS011;59249;59.736;30.568;2023-05-10T13:19:36;4.70;;;1.17;;
71127;SDS011;59249;59.736;30.568;2023-05-10T13:22:05;3.60;;;1.10;;
71127;SDS011;59249;59.736;30.568;2023-05-10T13:24:34;4.85;;;1.25;;
71127;SDS011;59249;59.736;30.568;2023-05-10T13:27:02;6.95;;;1.20;;
71127;SDS011;59249;59.736;30.568;2023-05-10T13:29:33;4.23;;;1.13;;
71127;SDS011;59249;59.736;30.568;2023-05-10T13:32:02;3.45;;;1.50;;
71127;SDS011;59249;59.736;30.568;2023-05-10T13:34:34;3.97;;;1.10;;
71127;SDS011;59249;59.736;30.568;2023-05-10T13:37:04;6.28;;;1.00;;
71127;SDS011;59249;59.736;30.568;2023-05-10T13:39:33;4.97;;;1.40;;
71127;SDS011;59249;59.736;30.568;2023-05-10T13:42:04;3.70;;;1.20;;
71127;SDS011;59249;59.736;30.568;2023-05-10T13:44:33;3.90;;;1.10;;
71127;SDS011;59249;59.736;30.568;2023-05-10T13:47:02;4.72;;;1.23;;
71127;SDS011;59249;59.736;30.568;2023-05-10T13:49:31;4.95;;;1.10;;
71127;SDS011;59249;59.736;30.568;2023-05-10T13:52:02;4.78;;;1.08;;
71127;SDS011;59249;59.736;30.568;2023-05-10T13:54:33;4.50;;;1.40;;
71127;SDS011;59249;59.736;30.568;2023-05-10T13:57:02;3.67;;;0.93;;
71127;SDS011;59249;59.736;30.568;2023-05-10T13:59:31;4.32;;;1.00;;
71127;SDS011;59249;59.736;30.568;2023-05-10T14:02:00;8.50;;;1.40;;
71127;SDS011;59249;59.736;30.568;2023-05-10T14:04:29;3.92;;;1.00;;
71127;SDS011;59249;59.736;30.568;2023-05-10T14:06:58;4.90;;;1.37;;
71127;SDS011;59249;59.736;30.568;2023-05-10T14:09:28;7.43;;;1.48;;
71127;SDS011;59249;59.736;30.568;2023-05-10T14:11:57;5.03;;;1.13;;
71127;SDS011;59249;59.736;30.568;2023-05-10T14:14:26;4.18;;;1.27;;
71127;SDS011;59249;59.736;30.568;2023-05-10T14:16:55;4.57;;;1.10;;
71127;SDS011;59249;59.736;30.568;2023-05-10T14:19:25;3.77;;;1.17;;
71127;SDS011;59249;59.736;30.568;2023-05-10T14:21:57;5.00;;;1.27;;
71127;SDS011;59249;59.736;30.568;2023-05-10T14:24:26;5.65;;;1.35;;
71127;SDS011;59249;59.736;30.568;2023-05-10T14:26:56;4.60;;;1.67;;
71127;SDS011;59249;59.736;30.568;2023-05-10T14:29:25;6.07;;;1.35;;
71127;SDS011;59249;59.736;30.568;2023-05-10T14:31:54;4.53;;;1.67;;
71127;SDS011;59249;59.736;30.568;2023-05-10T14:34:22;4.22;;;2.17;;
71127;SDS011;59249;59.736;30.568;2023-05-10T14:36:51;7.95;;;1.75;;
71127;SDS011;59249;59.736;30.568;2023-05-10T14:39:20;8.77;;;1.80;;
71127;SDS011;59249;59.736;30.568;2023-05-10T14:41:49;5.90;;;1.50;;
71127;SDS011;59249;59.736;30.568;2023-05-10T14:44:20;6.23;;;1.67;;
71127;SDS011;59249;59.736;30.568;2023-05-10T14:46:50;6.20;;;2.00;;
71127;SDS011;59249;59.736;30.568;2023-05-10T14:49:19;6.38;;;1.55;;
71127;SDS011;59249;59.736;30.568;2023-05-10T14:51:49;10.98;;;2.45;;
71127;SDS011;59249;59.736;30.568;2023-05-10T14:54:18;3.05;;;1.15;;